Mer Rouge, Louisiana
Current Conditions -  °F | °C
As of 4:35 PM on Thursday 20 Nov 2014 (Local Time) from KBQP Reporting Station
Scattered Clouds Scattered Clouds  
Wind Chill: 58°   Ceiling: Unl
Heat Index: 58°   Visibility: 10mi
Dew Point: 50°   Wind: 3mph
Humidity: 74%   Direction: 90°E
Pressure: 30.15"   Gusts: NA
Location:  32.78°N, 91.79°W
Report Text: KBQP 202235Z AUTO 09003KT 10SM SCT085 14/10 A3015 RMK AO2 T01440099
Loading
Personal Weather Stations






























Interactive Weather Map New forecast layout! Learn more

10-Day Weather Forecast

Advertisements
Track Severe Weather on mobile